Time;durP1;ratioP1;P1;durP2;ratioP2;P2;SDS_P1;SDS_P2;PMS_P1;PMS_P2;Temp;Humidity;BMP_temperature;BMP_pressure;BME280_temperature;BME280_humidity;BME280_pressure;Samples;Min_cycle;Max_cycle;Signal;HPM_P1;HPM_P2
2021/04/30 00:01:48;;;;;;;5.37;3.10;;;;;;;10.47;52.80;98071.52;125423;1098;64461;-80
2021/04/30 00:04:15;;;;;;;5.30;3.20;;;;;;;10.40;52.96;98076.54;125282;1098;64288;-82
2021/04/30 00:06:53;;;;;;;4.33;2.73;;;;;;;10.33;53.04;98078.05;125354;1098;64312;-81
2021/04/30 00:09:33;;;;;;;6.67;3.40;;;;;;;10.27;53.04;98087.44;125640;1098;64387;-82
2021/04/30 00:12:03;;;;;;;5.53;3.80;;;;;;;10.23;52.85;98088.66;125329;1093;64310;-80
2021/04/30 00:14:33;;;;;;;5.17;3.87;;;;;;;10.19;53.15;98097.05;125254;1093;64273;-78
2021/04/30 00:17:26;;;;;;;;;;;;;;;;;;;;;
2021/04/30 00:20:22;;;;;;;5.83;3.70;;;;;;;10.16;53.06;98105.30;125489;1098;64406;-78
2021/04/30 00:23:05;;;;;;;5.77;3.60;;;;;;;10.16;53.50;98107.97;125274;1093;64315;-79
2021/04/30 00:25:48;;;;;;;;;;;;;;;;;;;;;
2021/04/30 00:28:21;;;;;;;5.43;3.40;;;;;;;10.19;53.31;98107.72;125244;1091;64310;-82
2021/04/30 00:31:38;;;;;;;;;;;;;;;;;;;;;
2021/04/30 00:34:26;;;;;;;14.10;4.43;;;;;;;10.37;54.46;98110.64;124824;1093;64316;-78
2021/04/30 00:37:00;;;;;;;5.50;3.50;;;;;;;10.61;53.71;98121.03;124828;1101;64499;-78
2021/04/30 00:39:33;;;;;;;7.28;3.88;;;;;;;10.66;53.71;98118.80;124813;1097;64416;-79
2021/04/30 00:42:36;;;;;;;5.13;3.77;;;;;;;10.68;53.54;98127.52;124985;1093;64467;-77
2021/04/30 00:45:16;;;;;;;11.57;4.00;;;;;;;10.62;53.46;98128.05;125286;1101;64313;-77
2021/04/30 00:48:10;;;;;;;7.93;4.73;;;;;;;10.64;53.75;98136.80;124843;1093;64419;-77
2021/04/30 00:50:41;;;;;;;7.15;4.55;;;;;;;10.57;53.53;98144.49;124863;1096;64817;-83
2021/04/30 00:53:31;;;;;;;7.37;4.47;;;;;;;10.51;54.01;98137.86;124791;1101;64336;-82
2021/04/30 00:56:13;;;;;;;6.80;3.90;;;;;;;10.54;53.86;98139.41;125023;1101;64377;-81
2021/04/30 00:58:49;;;;;;;6.17;3.93;;;;;;;10.57;53.82;98136.48;124824;1101;64410;-82
2021/04/30 01:01:50;;;;;;;7.15;4.45;;;;;;;10.57;54.46;98146.31;125160;1101;64413;-83
2021/04/30 01:05:35;;;;;;;6.70;3.87;;;;;;;10.55;54.12;98152.61;125142;1101;64348;-84
2021/04/30 01:09:14;;;;;;;7.00;4.30;;;;;;;10.53;54.24;98151.91;125181;1094;64323;-76
2021/04/30 01:11:42;;;;;;;5.43;3.95;;;;;;;10.45;53.92;98153.55;124502;1104;64355;-77
2021/04/30 01:14:52;;;;;;;6.23;3.90;;;;;;;10.43;54.00;98164.38;124531;1104;64342;-78
2021/04/30 01:17:22;;;;;;;8.73;4.03;;;;;;;10.36;53.88;98170.34;124468;1104;64386;-81
2021/04/30 01:20:18;;;;;;;6.55;3.90;;;;;;;10.29;53.91;98176.20;124651;1100;64249;-79
2021/04/30 01:23:33;;;;;;;7.10;4.87;;;;;;;10.25;54.43;98177.45;125000;1100;64402;-78
2021/04/30 01:26:14;;;;;;;8.73;4.40;;;;;;;10.23;54.45;98183.88;124461;1104;64422;-78
2021/04/30 01:29:03;;;;;;;6.60;4.10;;;;;;;10.18;54.30;98186.92;124511;1104;64395;-79
2021/04/30 01:31:38;;;;;;;5.63;4.20;;;;;;;10.09;54.23;98190.34;124642;1105;64504;-81
2021/04/30 01:34:07;;;;;;;6.63;4.70;;;;;;;10.02;54.39;98198.02;125024;1104;64227;-77
2021/04/30 01:37:17;;;;;;;6.80;4.30;;;;;;;9.97;54.56;98197.55;124646;1104;64478;-85
2021/04/30 01:40:22;;;;;;;5.93;4.17;;;;;;;9.97;54.65;98200.21;124541;1104;64457;-82
2021/04/30 01:43:01;;;;;;;6.43;4.73;;;;;;;9.97;54.92;98192.21;124673;1099;64317;-78
2021/04/30 01:45:38;;;;;;;5.80;4.30;;;;;;;9.99;54.66;98194.78;124469;1104;64271;-82
2021/04/30 01:48:26;;;;;;;6.30;4.77;;;;;;;9.98;54.73;98193.05;124717;1099;64236;-77
2021/04/30 01:51:37;;;;;;;;;;;;;;;;;;;;;
2021/04/30 01:54:09;;;;;;;8.23;4.37;;;;;;;10.01;54.35;98190.99;125422;1098;64429;-83
2021/04/30 01:56:39;;;;;;;7.90;4.53;;;;;;;9.98;54.48;98191.23;125615;1093;64264;-79
2021/04/30 01:59:38;;;;;;;;;;;;;;;;;;;;;
2021/04/30 02:02:15;;;;;;;6.30;4.80;;;;;;;9.96;54.78;98187.86;125562;1098;64320;-78
2021/04/30 02:04:49;;;;;;;11.80;5.43;;;;;;;9.91;54.62;98191.88;125418;1098;64400;-83
2021/04/30 02:07:40;;;;;;;11.65;5.50;;;;;;;9.92;54.80;98199.74;125268;1098;64386;-77
2021/04/30 02:10:38;;;;;;;6.57;5.37;;;;;;;9.95;54.71;98193.33;125379;1098;64264;-77
2021/04/30 02:13:10;;;;;;;10.40;6.13;;;;;;;9.96;54.74;98198.53;125316;1098;64380;-78
2021/04/30 02:16:00;;;;;;;9.63;5.60;;;;;;;9.98;54.81;98191.23;125369;1098;64740;-82
2021/04/30 02:18:40;;;;;;;;;;;;;;;;;;;;;
2021/04/30 02:21:10;;;;;;;9.73;5.33;;;;;;;9.94;54.84;98191.64;125295;1098;64390;-79
2021/04/30 02:24:04;;;;;;;;;;;;;;;;;;;;;
2021/04/30 02:26:31;;;;;;;9.25;5.70;;;;;;;9.91;55.00;98194.55;125751;1092;64348;-79
2021/04/30 02:29:26;;;;;;;9.13;5.60;;;;;;;9.93;54.82;98204.13;125398;1098;64232;-79
2021/04/30 02:32:30;;;;;;;7.87;5.63;;;;;;;9.94;54.85;98202.31;125513;1094;64332;-78
2021/04/30 02:35:09;;;;;;;8.63;6.10;;;;;;;9.95;54.92;98210.17;125374;1093;64744;-77
2021/04/30 02:37:46;;;;;;;7.03;5.67;;;;;;;9.94;54.80;98204.97;125343;1093;64453;-82
2021/04/30 02:40:34;;;;;;;8.57;6.10;;;;;;;9.89;54.99;98210.68;125827;1098;64485;-79
2021/04/30 02:43:16;;;;;;;9.13;6.13;;;;;;;9.86;55.12;98210.95;125284;1098;64412;-79
2021/04/30 02:45:51;;;;;;;6.80;5.60;;;;;;;9.82;55.10;98212.16;125795;1098;64307;-83
2021/04/30 02:48:31;;;;;;;8.53;6.27;;;;;;;9.77;55.20;98222.36;125294;1098;64420;-77
2021/04/30 02:51:37;;;;;;;;;;;;;;;;;;;;;
2021/04/30 02:54:09;;;;;;;7.47;6.03;;;;;;;9.61;54.88;98219.27;125571;1098;64306;-81
2021/04/30 02:56:36;;;;;;;8.37;5.73;;;;;;;9.48;55.18;98222.08;125321;1098;64315;-79
2021/04/30 02:59:25;;;;;;;10.23;6.63;;;;;;;9.41;55.41;98223.52;125277;1092;64303;-79
2021/04/30 03:02:24;;;;;;;;;;;;;;;;;;;;;
2021/04/30 03:05:05;;;;;;;7.13;5.43;;;;;;;9.32;55.59;98218.94;125207;1098;64371;-81
2021/04/30 03:07:34;;;;;;;9.83;6.33;;;;;;;9.28;55.57;98228.98;125677;1093;64255;-80
2021/04/30 03:10:05;;;;;;;10.00;6.47;;;;;;;9.21;55.66;98225.95;125292;1098;64229;-79
2021/04/30 03:12:36;;;;;;;7.57;5.73;;;;;;;9.20;55.38;98231.42;125427;1093;64350;-78
2021/04/30 03:15:12;;;;;;;9.80;6.47;;;;;;;9.21;56.29;98227.78;125430;1092;64399;-78
2021/04/30 03:17:47;;;;;;;11.37;7.37;;;;;;;9.21;56.07;98230.44;125262;1093;64396;-80
2021/04/30 03:20:18;;;;;;;9.27;6.83;;;;;;;9.20;55.80;98234.92;125545;1091;64307;-81
2021/04/30 03:22:49;;;;;;;11.27;7.50;;;;;;;9.18;55.66;98246.69;125409;1098;64309;-82
2021/04/30 03:25:21;;;;;;;12.50;8.27;;;;;;;9.12;55.98;98249.83;125268;1098;64307;-78
2021/04/30 03:28:14;;;;;;;10.60;7.57;;;;;;;9.08;56.30;98249.21;125633;1098;64320;-78
2021/04/30 03:30:41;;;;;;;10.70;6.80;;;;;;;9.03;56.06;98262.03;125316;1098;64303;-79
2021/04/30 03:33:11;;;;;;;7.10;6.27;;;;;;;8.99;56.27;98259.75;126557;1092;64210;-79
2021/04/30 03:35:40;;;;;;;11.87;7.23;;;;;;;8.94;56.13;98262.77;125413;1098;64316;-80
2021/04/30 03:38:09;;;;;;;9.70;7.05;;;;;;;8.87;55.97;98261.55;125276;1091;64290;-82
2021/04/30 03:40:39;;;;;;;9.43;7.33;;;;;;;8.77;56.05;98265.88;125467;1098;64470;-78
2021/04/30 03:43:06;;;;;;;12.87;7.87;;;;;;;8.65;56.07;98270.34;125280;1093;64313;-80
2021/04/30 03:45:33;;;;;;;10.40;8.07;;;;;;;8.52;55.85;98274.90;125716;1093;64283;-79
2021/04/30 03:48:12;;;;;;;;;;;;;;;;;;;;;
2021/04/30 03:50:53;;;;;;;11.97;8.23;;;;;;;8.29;56.16;98273.96;125365;1098;64428;-78
2021/04/30 03:53:32;;;;;;;13.10;8.90;;;;;;;8.18;55.97;98274.76;125306;1098;64387;-79
2021/04/30 03:56:04;;;;;;;14.27;9.17;;;;;;;8.07;55.93;98285.34;125354;1093;64259;-81
2021/04/30 03:58:57;;;;;;;13.13;9.13;;;;;;;7.98;55.88;98289.53;125313;1093;64409;-77
2021/04/30 04:01:56;;;;;;;;;;;;;;;;;;;;;
2021/04/30 04:05:05;;;;;;;15.23;10.67;;;;;;;7.86;56.18;98299.25;125249;1098;64290;-80
2021/04/30 04:07:52;;;;;;;14.73;10.57;;;;;;;7.84;56.57;98303.00;125512;1098;64233;-78
2021/04/30 04:10:38;;;;;;;;;;;;;;;;;;;;;
2021/04/30 04:13:46;;;;;;;15.53;9.80;;;;;;;7.93;55.77;98307.63;125297;1098;64316;-82
2021/04/30 04:16:17;;;;;;;11.93;9.27;;;;;;;8.04;56.40;98306.85;125255;1093;64304;-80
2021/04/30 04:19:17;;;;;;;;;;;;;;;;;;;;;
2021/04/30 04:21:50;;;;;;;14.73;10.83;;;;;;;8.29;55.92;98320.03;125418;1098;64346;-82
2021/04/30 04:24:24;;;;;;;15.50;10.60;;;;;;;8.39;56.36;98326.38;125281;1098;64304;-79
2021/04/30 04:27:23;;;;;;;;;;;;;;;;;;;;;
2021/04/30 04:30:13;;;;;;;;;;;;;;;;;;;;;
2021/04/30 04:33:00;;;;;;;13.20;9.43;;;;;;;8.64;56.36;98324.53;125275;1092;64261;-78
2021/04/30 04:35:33;;;;;;;19.43;11.93;;;;;;;8.79;55.82;98317.22;125625;1098;64336;-79
2021/04/30 04:38:00;;;;;;;15.20;9.90;;;;;;;8.94;56.22;98321.36;125455;1093;64287;-78
2021/04/30 04:40:28;;;;;;;11.80;9.40;;;;;;;9.07;56.06;98322.10;125285;1093;64396;-80
2021/04/30 04:43:21;;;;;;;12.90;9.87;;;;;;;9.23;55.87;98327.09;126325;1098;64233;-83
2021/04/30 04:45:57;;;;;;;13.67;9.97;;;;;;;9.41;55.92;98335.44;125256;1098;64229;-84
2021/04/30 04:48:24;;;;;;;11.30;9.23;;;;;;;9.48;55.92;98337.52;125343;1098;64326;-79
2021/04/30 04:50:54;;;;;;;11.87;8.87;;;;;;;9.58;55.61;98340.30;125401;1098;64410;-78
2021/04/30 04:53:24;;;;;;;11.35;8.35;;;;;;;9.69;55.71;98344.78;125313;1093;64339;-82
2021/04/30 04:55:51;;;;;;;14.33;9.57;;;;;;;9.77;55.60;98342.34;125259;1098;64301;-78
2021/04/30 04:58:49;;;;;;;11.40;9.10;;;;;;;9.90;55.56;98344.88;125220;1098;64393;-83
2021/04/30 05:01:20;;;;;;;12.73;8.80;;;;;;;10.05;55.39;98350.78;125686;1093;64470;-81
2021/04/30 05:04:13;;;;;;;16.47;9.13;;;;;;;10.22;55.76;98348.44;125203;1098;64400;-80
2021/04/30 05:07:19;;;;;;;10.75;9.10;;;;;;;10.38;55.26;98357.91;125263;1093;64370;-80
2021/04/30 05:09:55;;;;;;;12.53;9.33;;;;;;;10.52;55.42;98347.77;125231;1093;64326;-84
2021/04/30 05:12:36;;;;;;;13.93;8.53;;;;;;;10.67;54.88;98353.64;125282;1092;64502;-79
2021/04/30 05:15:04;;;;;;;13.77;8.47;;;;;;;10.83;55.18;98361.23;125280;1093;64382;-78
2021/04/30 05:18:06;;;;;;;12.60;9.50;;;;;;;10.97;54.29;98370.75;125279;1093;64303;-80
2021/04/30 05:20:44;;;;;;;9.90;8.30;;;;;;;11.15;55.18;98365.67;125392;1093;64236;-79
2021/04/30 05:23:14;;;;;;;12.07;8.77;;;;;;;11.39;54.79;98366.25;125308;1098;64383;-81
2021/04/30 05:25:41;;;;;;;12.60;8.97;;;;;;;11.58;54.34;98365.50;125363;1090;64316;-79
2021/04/30 05:28:15;;;;;;;10.30;8.70;;;;;;;11.62;53.89;98353.53;125352;1098;64406;-82
2021/04/30 05:30:42;;;;;;;12.57;8.77;;;;;;;11.64;53.93;98365.81;125325;1098;64352;-80
2021/04/30 05:33:10;;;;;;;12.53;8.50;;;;;;;11.70;53.92;98364.40;125354;1098;64406;-80
2021/04/30 05:35:42;;;;;;;12.95;7.95;;;;;;;11.78;53.71;98367.27;125307;1098;64258;-78
2021/04/30 05:38:28;;;;;;;12.77;8.53;;;;;;;11.98;53.36;98362.86;125305;1098;64367;-80
2021/04/30 05:41:07;;;;;;;11.00;8.00;;;;;;;11.98;53.32;98368.22;125379;1090;64467;-83
2021/04/30 05:43:39;;;;;;;10.20;8.20;;;;;;;12.06;53.47;98365.70;125366;1098;64371;-82
2021/04/30 05:46:09;;;;;;;12.63;8.70;;;;;;;12.16;53.10;98361.22;125332;1098;64283;-80
2021/04/30 05:48:47;;;;;;;;;;;;;;;;;;;;;
2021/04/30 05:51:47;;;;;;;;;;;;;;;;;;;;;
2021/04/30 05:54:33;;;;;;;10.45;7.85;;;;;;;12.42;52.98;98368.73;125334;1098;64355;-83
2021/04/30 05:57:03;;;;;;;11.23;8.17;;;;;;;12.36;52.56;98372.81;125326;1098;64396;-78
2021/04/30 05:59:32;;;;;;;11.93;8.30;;;;;;;12.44;53.22;98369.44;125221;1098;64380;-78
2021/04/30 06:01:59;;;;;;;10.30;9.10;;;;;;;12.60;52.11;98368.91;125337;1090;64302;-78
2021/04/30 06:04:28;;;;;;;11.10;8.05;;;;;;;12.66;52.25;98379.91;125235;1098;64227;-83
2021/04/30 06:06:55;;;;;;;10.35;7.45;;;;;;;12.61;52.55;98375.95;125295;1098;64351;-82
2021/04/30 06:09:25;;;;;;;16.90;7.73;;;;;;;12.54;52.43;98378.34;125254;1098;64284;-81
2021/04/30 06:11:53;;;;;;;12.23;8.70;;;;;;;12.50;50.79;98390.30;125243;1088;64364;-81
2021/04/30 06:14:25;;;;;;;10.07;7.47;;;;;;;12.37;51.77;98381.69;125278;1098;64492;-76
2021/04/30 06:16:53;;;;;;;10.90;8.10;;;;;;;12.38;51.50;98381.55;125324;1098;64664;-80
2021/04/30 06:19:20;;;;;;;8.10;7.30;;;;;;;12.40;52.15;98381.40;125303;1090;64232;-79
2021/04/30 06:21:47;;;;;;;12.13;8.50;;;;;;;12.46;51.99;98380.84;125311;1098;64407;-81
2021/04/30 06:24:14;;;;;;;14.57;7.73;;;;;;;12.47;51.49;98389.72;125366;1090;64368;-78
2021/04/30 06:26:41;;;;;;;11.15;7.35;;;;;;;12.36;51.13;98388.03;125341;1098;64224;-78
2021/04/30 06:29:08;;;;;;;10.63;7.50;;;;;;;12.37;51.03;98387.05;125288;1098;64383;-84
2021/04/30 06:31:36;;;;;;;11.97;7.27;;;;;;;12.35;51.14;98387.19;125321;1098;64460;-82
2021/04/30 06:34:05;;;;;;;11.00;7.60;;;;;;;12.47;51.74;98389.72;125266;1098;64361;-80
2021/04/30 06:36:33;;;;;;;10.37;7.43;;;;;;;12.57;50.38;98396.80;125330;1098;64298;-82
2021/04/30 06:39:01;;;;;;;14.30;7.77;;;;;;;12.70;51.09;98400.05;125407;1090;64312;-81
2021/04/30 06:41:28;;;;;;;12.10;7.20;;;;;;;12.80;50.61;98401.91;125269;1098;64302;-80
2021/04/30 06:43:55;;;;;;;12.43;7.37;;;;;;;12.72;51.09;98391.86;125257;1098;64393;-81
2021/04/30 06:46:23;;;;;;;8.30;6.70;;;;;;;12.71;50.79;98401.73;125282;1098;64422;-80
2021/04/30 06:48:51;;;;;;;14.13;7.17;;;;;;;12.71;50.01;98401.73;125272;1090;64419;-77
2021/04/30 06:51:18;;;;;;;9.97;7.83;;;;;;;12.83;50.54;98398.93;125314;1098;64394;-77
2021/04/30 06:53:45;;;;;;;13.10;7.55;;;;;;;12.86;49.44;98395.98;125292;1093;64255;-78
2021/04/30 06:56:12;;;;;;;9.53;6.60;;;;;;;12.72;50.19;98410.62;125260;1098;64384;-79
2021/04/30 06:58:40;;;;;;;9.15;7.20;;;;;;;12.70;49.95;98401.89;125327;1090;64313;-76
2021/04/30 07:01:09;;;;;;;9.80;7.80;;;;;;;12.65;49.52;98404.97;125291;1090;64399;-83
2021/04/30 07:03:37;;;;;;;9.83;7.10;;;;;;;12.70;49.92;98402.73;125351;1090;64422;-79
2021/04/30 07:06:04;;;;;;;15.35;7.10;;;;;;;12.90;50.37;98402.73;125273;1090;64613;-79
2021/04/30 07:08:31;;;;;;;9.17;6.90;;;;;;;13.08;49.76;98397.52;125316;1098;64290;-77
2021/04/30 07:11:00;;;;;;;11.27;7.17;;;;;;;13.20;49.04;98397.25;125310;1098;64345;-82
2021/04/30 07:13:35;;;;;;;9.37;7.07;;;;;;;13.29;49.91;98398.22;125289;1098;64463;-79
2021/04/30 07:16:03;;;;;;;8.35;6.75;;;;;;;13.51;49.03;98397.91;125348;1098;64230;-80
2021/04/30 07:18:46;;;;;;;8.33;6.50;;;;;;;13.40;48.86;98403.42;125397;1098;64255;-78
2021/04/30 07:21:13;;;;;;;11.27;6.50;;;;;;;13.14;49.01;98389.75;125235;1098;64335;-78
2021/04/30 07:23:40;;;;;;;8.13;6.57;;;;;;;13.16;48.80;98395.80;125262;1098;64323;-77
2021/04/30 07:26:07;;;;;;;9.10;6.60;;;;;;;13.11;49.08;98398.09;125259;1098;64310;-82
2021/04/30 07:28:34;;;;;;;8.60;6.70;;;;;;;13.04;49.95;98396.97;125285;1090;64489;-79
2021/04/30 07:31:04;;;;;;;6.43;5.50;;;;;;;13.06;49.42;98407.55;125299;1093;64310;-85
2021/04/30 07:33:38;;;;;;;6.93;5.83;;;;;;;12.97;49.42;98403.86;125228;1098;64351;-76
2021/04/30 07:36:05;;;;;;;10.30;7.10;;;;;;;13.00;48.53;98398.23;125426;1098;64338;-77
2021/04/30 07:38:32;;;;;;;8.03;6.50;;;;;;;12.96;49.74;98415.58;125332;1098;64383;-79
2021/04/30 07:40:59;;;;;;;8.57;5.43;;;;;;;13.13;49.92;98417.55;125308;1098;64307;-80
2021/04/30 07:43:27;;;;;;;11.13;6.17;;;;;;;13.36;48.70;98406.53;125360;1098;64397;-78
2021/04/30 07:45:54;;;;;;;6.93;5.80;;;;;;;13.39;49.26;98414.31;125259;1093;64396;-78
2021/04/30 07:48:22;;;;;;;10.30;5.85;;;;;;;13.43;48.20;98410.36;125282;1093;64357;-76
2021/04/30 07:50:51;;;;;;;10.27;6.17;;;;;;;13.45;48.97;98419.09;125304;1098;64390;-82
2021/04/30 07:53:18;;;;;;;13.60;5.87;;;;;;;13.59;49.37;98421.31;125459;1094;64348;-81
2021/04/30 07:55:48;;;;;;;6.70;5.90;;;;;;;13.67;48.44;98412.53;125312;1093;64310;-78
2021/04/30 07:58:15;;;;;;;6.07;5.07;;;;;;;13.72;48.42;98421.84;125254;1098;64306;-82
2021/04/30 08:00:42;;;;;;;8.27;5.70;;;;;;;13.74;47.68;98422.56;125321;1098;64341;-78
2021/04/30 08:03:09;;;;;;;6.03;5.03;;;;;;;13.79;48.90;98417.58;125240;1098;64374;-79
2021/04/30 08:05:36;;;;;;;8.60;5.10;;;;;;;14.09;49.02;98423.69;125292;1093;64242;-78
2021/04/30 08:08:06;;;;;;;6.70;5.93;;;;;;;14.28;48.71;98431.66;125259;1098;64313;-82
2021/04/30 08:10:42;;;;;;;11.10;5.70;;;;;;;14.41;48.79;98439.36;125250;1093;64313;-84
2021/04/30 08:13:10;;;;;;;8.17;5.80;;;;;;;14.46;47.01;98437.11;125293;1098;64306;-79
2021/04/30 08:15:37;;;;;;;6.25;4.80;;;;;;;14.44;48.14;98443.58;125273;1091;65846;-78
2021/04/30 08:18:05;;;;;;;10.13;5.80;;;;;;;14.34;47.03;98441.80;125294;1098;64303;-84
2021/04/30 08:20:43;;;;;;;7.83;6.20;;;;;;;14.37;48.79;98445.17;125356;1098;64380;-83
2021/04/30 08:23:14;;;;;;;6.43;5.60;;;;;;;14.68;47.88;98435.83;125292;1091;64316;-79
2021/04/30 08:25:53;;;;;;;7.90;5.50;;;;;;;14.58;47.01;98445.81;125285;1098;64307;-78
2021/04/30 08:28:41;;;;;;;6.97;5.93;;;;;;;14.39;47.41;98443.21;125254;1093;64565;-78
2021/04/30 08:31:15;;;;;;;7.23;5.17;;;;;;;14.46;48.20;98445.17;125260;1098;64335;-79
2021/04/30 08:34:01;;;;;;;6.23;5.07;;;;;;;14.62;47.85;98441.81;125252;1093;64254;-79
2021/04/30 08:36:37;;;;;;;6.87;5.57;;;;;;;14.68;47.24;98435.83;125265;1098;64293;-78
2021/04/30 08:39:14;;;;;;;9.73;6.23;;;;;;;14.59;47.15;98442.13;125321;1098;64243;-77
2021/04/30 08:41:57;;;;;;;9.57;6.70;;;;;;;14.56;47.69;98431.67;125237;1098;64218;-77
2021/04/30 08:45:07;;;;;;;9.00;5.37;;;;;;;14.58;47.10;98441.28;125220;1098;64293;-80
2021/04/30 08:47:50;;;;;;;10.27;5.97;;;;;;;14.74;47.72;98435.23;125244;1090;64310;-78
2021/04/30 08:50:18;;;;;;;8.03;6.57;;;;;;;14.98;47.77;98436.48;125234;1091;64390;-81
2021/04/30 08:52:46;;;;;;;8.47;6.60;;;;;;;14.99;47.00;98440.86;125279;1098;64345;-83
2021/04/30 08:55:51;;;;;;;8.40;7.00;;;;;;;15.01;47.33;98453.14;125249;1098;64313;-77
2021/04/30 08:58:31;;;;;;;6.87;6.07;;;;;;;14.96;47.08;98450.09;125267;1098;64317;-81
2021/04/30 09:01:21;;;;;;;7.50;5.95;;;;;;;15.14;47.28;98442.00;125381;1098;64339;-77
2021/04/30 09:03:57;;;;;;;6.97;5.77;;;;;;;15.09;46.95;98444.33;125222;1098;64326;-78
2021/04/30 09:06:35;;;;;;;10.65;5.35;;;;;;;15.16;46.90;98453.47;125246;1098;64310;-78
2021/04/30 09:09:14;;;;;;;7.77;6.40;;;;;;;14.97;46.56;98454.46;125318;1093;64232;-77
2021/04/30 09:12:01;;;;;;;11.47;6.50;;;;;;;14.87;47.32;98453.67;125190;1098;64293;-76
2021/04/30 09:14:47;;;;;;;;;;;;;;;;;;;;;
2021/04/30 09:18:01;;;;;;;9.35;5.40;;;;;;;15.17;47.22;98447.08;125163;1091;64508;-79
2021/04/30 09:20:49;;;;;;;10.20;5.35;;;;;;;15.31;47.44;98448.38;125244;1091;64409;-77
2021/04/30 09:23:54;;;;;;;6.27;5.37;;;;;;;15.20;46.87;98436.00;125248;1098;64316;-78
2021/04/30 09:26:40;;;;;;;6.40;5.30;;;;;;;15.37;47.24;98439.69;125231;1098;64344;-78
2021/04/30 09:29:18;;;;;;;7.03;5.47;;;;;;;15.45;46.52;98442.42;125179;1098;64217;-78
2021/04/30 09:31:50;;;;;;;7.23;5.33;;;;;;;15.34;46.93;98442.70;125182;1091;64403;-78
2021/04/30 09:34:26;;;;;;;8.17;4.83;;;;;;;15.41;47.04;98441.08;125295;1093;64405;-80
2021/04/30 09:37:15;;;;;;;6.60;5.43;;;;;;;15.58;47.20;98431.25;125346;1093;64411;-79
2021/04/30 09:40:00;;;;;;;5.40;4.60;;;;;;;15.86;46.69;98438.22;125303;1093;64307;-78
2021/04/30 09:42:39;;;;;;;;;;;;;;;;;;;;;
2021/04/30 09:45:13;;;;;;;6.60;5.50;;;;;;;15.84;46.12;98420.52;125281;1098;64470;-84
2021/04/30 09:48:00;;;;;;;;;;;;;;;;;;;;;
2021/04/30 09:50:31;;;;;;;7.23;4.50;;;;;;;15.96;46.41;98421.94;125271;1098;64597;-79
2021/04/30 09:53:03;;;;;;;4.87;4.37;;;;;;;16.28;45.37;98421.25;125416;1098;64291;-84
2021/04/30 09:55:42;;;;;;;7.13;5.33;;;;;;;16.38;44.78;98432.75;125340;1092;64310;-79
2021/04/30 09:58:29;;;;;;;6.27;5.30;;;;;;;16.19;45.10;98425.77;125247;1098;64339;-83
2021/04/30 10:01:00;;;;;;;5.20;4.70;;;;;;;16.33;45.07;98434.24;125301;1098;64274;-79
2021/04/30 10:03:28;;;;;;;4.95;4.45;;;;;;;16.34;45.44;98442.16;125310;1098;64306;-78
2021/04/30 10:06:13;;;;;;;4.67;4.27;;;;;;;16.41;43.99;98435.14;125313;1093;64339;-82
2021/04/30 10:08:41;;;;;;;5.90;4.63;;;;;;;16.33;44.97;98439.63;125338;1098;64291;-80
2021/04/30 10:11:28;;;;;;;6.37;4.90;;;;;;;16.39;44.97;98434.44;125279;1098;64476;-79
2021/04/30 10:14:03;;;;;;;6.78;5.38;;;;;;;16.52;45.45;98435.83;125308;1093;64315;-79
2021/04/30 10:16:31;;;;;;;5.13;4.30;;;;;;;16.54;44.81;98433.81;125275;1098;64233;-80
2021/04/30 10:18:57;;;;;;;5.13;4.60;;;;;;;16.34;44.40;98431.38;125360;1093;64281;-80
2021/04/30 10:21:29;;;;;;;9.37;4.60;;;;;;;16.31;44.49;98437.11;125287;1098;64220;-80
2021/04/30 10:23:58;;;;;;;7.87;4.77;;;;;;;16.44;44.77;98445.58;125293;1090;64393;-80
2021/04/30 10:26:30;;;;;;;5.73;4.30;;;;;;;16.52;44.01;98443.92;125326;1098;64339;-83
2021/04/30 10:29:01;;;;;;;7.10;5.40;;;;;;;16.45;44.77;98444.56;125323;1098;64389;-80
2021/04/30 10:31:36;;;;;;;7.10;4.70;;;;;;;16.45;44.47;98432.95;125390;1098;64217;-82
2021/04/30 10:34:10;;;;;;;7.05;4.20;;;;;;;16.75;45.40;98431.56;125361;1092;64287;-77
2021/04/30 10:36:45;;;;;;;7.17;4.67;;;;;;;17.02;45.41;98431.27;125295;1098;64338;-78
2021/04/30 10:39:22;;;;;;;;;;;;;;;17.22;44.08;98429.09;125326;1092;64230;-78
2021/04/30 10:41:52;;;;;;;5.77;4.83;;;;;;;17.11;43.65;98426.72;125295;1098;64313;-79
2021/04/30 10:44:29;;;;;;;6.40;4.80;;;;;;;17.03;44.29;98422.16;125331;1098;64315;-78
2021/04/30 10:47:05;;;;;;;10.57;4.87;;;;;;;16.95;44.21;98421.31;125330;1093;64374;-79
2021/04/30 10:49:57;;;;;;;8.73;5.10;;;;;;;16.87;44.66;98427.55;125479;1093;64338;-81
2021/04/30 10:52:24;;;;;;;10.20;5.47;;;;;;;17.16;44.77;98416.27;125301;1093;64243;-78
2021/04/30 10:55:13;;;;;;;6.23;4.47;;;;;;;17.29;44.27;98421.16;125376;1093;64336;-79
2021/04/30 10:57:50;;;;;;;8.77;5.37;;;;;;;17.15;43.72;98427.23;125428;1098;64242;-76
2021/04/30 11:00:24;;;;;;;6.93;4.37;;;;;;;16.85;44.00;98426.84;125383;1093;64188;-79
2021/04/30 11:03:15;;;;;;;6.10;5.05;;;;;;;16.89;44.68;98428.22;125459;1091;64419;-78
2021/04/30 11:06:00;;;;;;;10.40;5.50;;;;;;;16.97;44.21;98425.52;125458;1098;64304;-78
2021/04/30 11:08:47;;;;;;;7.00;5.73;;;;;;;16.91;44.18;98423.49;125485;1092;64308;-78
2021/04/30 11:11:14;;;;;;;6.83;4.23;;;;;;;16.98;44.12;98418.27;125374;1098;64466;-81
2021/04/30 11:14:13;;;;;;;;;;;;;;;;;;;;;
2021/04/30 11:16:53;;;;;;;6.27;5.10;;;;;;;16.90;44.01;98421.81;125433;1098;64512;-78
2021/04/30 11:19:23;;;;;;;5.57;4.70;;;;;;;16.96;42.98;98414.91;125389;1098;64252;-77
2021/04/30 11:21:53;;;;;;;5.77;5.17;;;;;;;17.14;44.17;98412.91;125383;1098;64307;-77
2021/04/30 11:25:08;;;;;;;;;;;;;;;;;;;;;
2021/04/30 11:27:56;;;;;;;10.33;5.27;;;;;;;17.57;44.46;98421.68;125439;1098;64284;-79
2021/04/30 11:30:24;;;;;;;9.37;4.63;;;;;;;17.95;44.46;98422.83;125390;1098;64313;-80
2021/04/30 11:32:55;;;;;;;11.00;5.03;;;;;;;18.10;44.37;98422.94;125775;1098;64274;-79
2021/04/30 11:35:27;;;;;;;8.55;5.20;;;;;;;17.99;43.95;98418.74;125427;1093;64342;-79
2021/04/30 11:37:57;;;;;;;5.10;4.60;;;;;;;17.55;43.52;98418.28;125476;1098;64255;-79
2021/04/30 11:40:30;;;;;;;5.23;4.73;;;;;;;17.43;43.99;98416.94;125390;1098;64280;-80
2021/04/30 11:43:06;;;;;;;5.30;4.80;;;;;;;17.47;43.73;98423.70;125408;1098;64403;-79
2021/04/30 11:45:55;;;;;;;7.53;5.27;;;;;;;17.50;42.71;98435.02;125412;1098;64281;-79
2021/04/30 11:48:30;;;;;;;9.03;5.47;;;;;;;17.42;43.77;98421.50;125472;1098;64307;-77
2021/04/30 11:51:09;;;;;;;;;;;;;;;17.46;43.70;98430.95;125438;1093;64403;-78
2021/04/30 11:53:39;;;;;;;12.97;5.03;;;;;;;17.43;43.72;98425.91;125409;1093;64313;-78
2021/04/30 11:56:07;;;;;;;7.30;5.27;;;;;;;17.48;43.57;98426.22;125475;1092;64410;-80
2021/04/30 11:58:41;;;;;;;5.43;4.93;;;;;;;17.52;43.99;98419.48;125442;1093;64313;-78
2021/04/30 12:01:14;;;;;;;15.50;6.73;;;;;;;17.59;43.69;98422.34;125385;1098;64403;-76
2021/04/30 12:03:51;;;;;;;10.27;6.50;;;;;;;17.41;43.23;98417.12;125481;1098;64309;-77
2021/04/30 12:06:38;;;;;;;6.40;5.80;;;;;;;17.25;43.71;98409.88;125551;1098;64410;-78
2021/04/30 12:09:10;;;;;;;8.77;6.20;;;;;;;17.23;44.21;98411.88;125270;1092;64306;-81
2021/04/30 12:11:42;;;;;;;13.60;6.70;;;;;;;17.23;44.10;98411.05;125348;1090;64370;-78
2021/04/30 12:14:10;;;;;;;7.70;6.07;;;;;;;17.40;44.08;98418.14;125277;1098;64560;-78
2021/04/30 12:16:39;;;;;;;8.00;6.80;;;;;;;17.39;44.00;98404.81;125334;1093;64332;-77
2021/04/30 12:19:07;;;;;;;7.30;6.13;;;;;;;17.21;44.08;98413.92;125276;1093;64288;-80
2021/04/30 12:21:35;;;;;;;8.25;6.20;;;;;;;17.23;43.28;98414.59;125285;1098;64313;-80
2021/04/30 12:24:07;;;;;;;9.03;6.73;;;;;;;17.09;43.82;98414.42;125364;1098;64312;-76
2021/04/30 12:26:36;;;;;;;8.90;5.77;;;;;;;17.13;43.68;98432.81;125368;1091;64230;-78
2021/04/30 12:29:07;;;;;;;7.13;5.87;;;;;;;16.96;43.45;98421.14;125409;1098;64677;-81
2021/04/30 12:31:39;;;;;;;7.33;6.10;;;;;;;16.78;43.31;98422.29;125336;1098;64223;-77
2021/04/30 12:34:06;;;;;;;6.90;6.07;;;;;;;16.70;43.64;98426.66;125314;1093;64366;-78
2021/04/30 12:36:34;;;;;;;7.03;6.10;;;;;;;16.71;44.02;98422.11;125262;1098;64313;-81
2021/04/30 12:39:05;;;;;;;9.50;7.37;;;;;;;16.77;44.01;98431.39;125286;1090;64303;-82
2021/04/30 12:41:34;;;;;;;7.30;6.03;;;;;;;16.79;44.04;98422.12;125468;1098;64406;-80
2021/04/30 12:44:11;;;;;;;7.13;5.47;;;;;;;16.90;43.90;98423.66;125326;1090;64671;-80